Time;durP1;ratioP1;P1;durP2;ratioP2;P2;SDS_P1;SDS_P2;PMS_P1;PMS_P2;Temp;Humidity;BMP_temperature;BMP_pressure;BME280_temperature;BME280_humidity;BME280_pressure;Samples;Min_cycle;Max_cycle;Signal;HPM_P1;HPM_P2
2022/06/09 00:00:01;;;;;;;15.55;13.38;;;25.90;65.60;;;;;;5054699;28;20386;-85
2022/06/09 00:02:30;;;;;;;16.42;13.75;;;26.00;65.20;;;;;;5054771;28;20083;-85
2022/06/09 00:04:58;;;;;;;14.35;12.88;;;26.00;64.90;;;;;;5053843;28;20363;-85
2022/06/09 00:07:24;;;;;;;16.67;14.48;;;26.00;64.70;;;;;;5055200;28;20021;-86
2022/06/09 00:10:01;;;;;;;17.00;12.93;;;25.90;65.00;;;;;;5055601;28;20052;-81
2022/06/09 00:12:27;;;;;;;18.02;14.40;;;25.70;66.20;;;;;;5051386;28;20551;-85
2022/06/09 00:14:56;;;;;;;15.07;13.52;;;25.80;65.60;;;;;;5051332;28;20025;-82
2022/06/09 00:17:23;;;;;;;14.60;13.02;;;25.80;65.50;;;;;;5051594;28;20068;-85
2022/06/09 00:19:49;;;;;;;17.10;13.30;;;25.70;65.10;;;;;;5052144;28;20139;-85
2022/06/09 00:22:15;;;;;;;18.35;15.18;;;25.70;65.00;;;;;;5035291;28;20372;-82
2022/06/09 00:24:41;;;;;;;14.82;13.32;;;25.50;65.50;;;;;;5042432;28;20460;-85
2022/06/09 00:27:06;;;;;;;13.50;11.68;;;25.40;66.40;;;;;;5055533;28;20466;-86
2022/06/09 00:29:32;;;;;;;20.30;16.50;;;25.40;67.40;;;;;;5052865;28;20029;-84
2022/06/09 00:31:58;;;;;;;14.95;13.35;;;25.40;67.10;;;;;;5055681;28;20500;-85
2022/06/09 00:34:24;;;;;;;18.10;13.85;;;25.60;66.50;;;;;;5053975;28;20017;-84
2022/06/09 00:36:49;;;;;;;23.10;13.85;;;25.70;66.20;;;;;;5053809;28;20124;-82
2022/06/09 00:39:15;;;;;;;14.32;12.77;;;25.70;65.20;;;;;;5055659;28;20021;-83
2022/06/09 00:41:43;;;;;;;20.13;14.57;;;25.60;64.90;;;;;;5053213;28;20375;-82
2022/06/09 00:44:29;;;;;;;14.85;13.25;;;25.70;64.70;;;;;;5053677;28;20068;-83
2022/06/09 00:47:01;;;;;;;14.32;12.82;;;25.70;65.00;;;;;;5052511;28;20056;-82
2022/06/09 00:49:32;;;;;;;16.40;13.52;;;25.40;64.80;;;;;;5054676;28;20033;-82
2022/06/09 00:52:00;;;;;;;17.05;13.75;;;25.30;65.00;;;;;;5053773;28;20028;-82
2022/06/09 00:54:33;;;;;;;15.50;13.88;;;25.10;65.30;;;;;;5053135;28;20029;-81
2022/06/09 00:57:05;;;;;;;16.23;13.95;;;24.90;65.70;;;;;;5046525;28;20391;-80
2022/06/09 00:59:34;;;;;;;17.45;15.18;;;24.70;66.10;;;;;;5048823;28;20033;-82
2022/06/09 01:02:02;;;;;;;18.65;15.57;;;24.70;66.30;;;;;;5053428;28;20021;-81
2022/06/09 01:04:31;;;;;;;18.23;14.68;;;24.90;66.00;;;;;;5053422;28;20021;-83
2022/06/09 01:07:10;;;;;;;17.60;15.13;;;25.00;65.90;;;;;;5053723;28;20033;-82
2022/06/09 01:09:36;;;;;;;16.98;15.02;;;25.10;65.70;;;;;;5054184;28;20059;-82
2022/06/09 01:12:20;;;;;;;19.70;15.52;;;25.20;65.70;;;;;;5053096;28;20017;-82
2022/06/09 01:14:46;;;;;;;16.90;14.48;;;25.30;65.60;;;;;;5052437;28;20380;-80
2022/06/09 01:17:33;;;;;;;16.88;15.07;;;25.30;65.50;;;;;;5053919;28;20045;-81
2022/06/09 01:20:08;;;;;;;19.27;15.40;;;25.30;65.20;;;;;;5052220;28;20103;-81
2022/06/09 01:23:07;;;;;;;18.92;15.70;;;25.40;65.30;;;;;;5052243;28;20031;-80
2022/06/09 01:25:45;;;;;;;17.90;14.57;;;25.40;65.30;;;;;;5052139;28;20032;-81
2022/06/09 01:28:39;;;;;;;15.15;13.55;;;25.50;65.00;;;;;;5052796;28;20098;-80
2022/06/09 01:31:10;;;;;;;16.13;14.43;;;25.00;65.40;;;;;;5052690;28;20021;-81
2022/06/09 01:33:43;;;;;;;15.60;13.82;;;24.70;65.70;;;;;;5053830;28;20464;-80
2022/06/09 01:36:14;;;;;;;19.50;14.07;;;24.60;65.90;;;;;;5053371;28;20108;-81
2022/06/09 01:39:01;;;;;;;17.02;15.00;;;24.60;66.40;;;;;;5052970;28;20114;-81
2022/06/09 01:41:27;;;;;;;18.05;15.23;;;24.40;66.30;;;;;;5051346;28;20027;-80
2022/06/09 01:43:55;;;;;;;17.48;15.65;;;24.30;66.70;;;;;;5054046;28;20021;-81
2022/06/09 01:48:20;;;;;;;19.00;15.90;;;24.60;65.90;;;;;;4991991;27;3983016;-78
2022/06/09 01:50:57;;;;;;;18.55;15.68;;;24.70;66.40;;;;;;5082980;28;20106;-82
2022/06/09 01:53:35;;;;;;;17.88;15.98;;;24.90;66.60;;;;;;5087501;28;20525;-81
2022/06/09 01:56:30;;;;;;;16.83;14.95;;;24.70;67.20;;;;;;5092954;28;20024;-81
2022/06/09 01:59:10;;;;;;;17.30;14.35;;;24.50;69.00;;;;;;5007878;28;20037;-79
2022/06/09 02:01:41;;;;;;;;;;;24.50;68.30;;;;;;4992052;28;20022;-80
2022/06/09 02:04:10;;;;;;;;;;;24.70;67.70;;;;;;5008250;28;19968;-80
2022/06/09 02:06:36;;;;;;;18.30;16.10;;;24.80;67.40;;;;;;5007632;28;19910;-81
2022/06/09 02:09:04;;;;;;;19.48;15.68;;;24.90;67.30;;;;;;5008790;28;20107;-81
2022/06/09 02:11:30;;;;;;;18.00;16.05;;;25.10;67.20;;;;;;4992488;28;20041;-80
2022/06/09 02:13:57;;;;;;;17.63;15.80;;;25.10;67.30;;;;;;4973449;28;20422;-81
2022/06/09 02:16:24;;;;;;;18.20;16.20;;;25.10;67.50;;;;;;5006572;28;20042;-80
2022/06/09 02:18:55;;;;;;;17.85;16.05;;;25.10;67.50;;;;;;5003144;28;20128;-80
2022/06/09 02:21:23;;;;;;;19.85;16.40;;;25.20;67.70;;;;;;4990211;28;20066;-80
2022/06/09 02:23:49;;;;;;;18.05;16.15;;;25.20;67.80;;;;;;4991133;28;20572;-79
2022/06/09 02:26:18;;;;;;;20.65;16.88;;;25.30;67.80;;;;;;4986058;28;20044;-82
2022/06/09 02:28:44;;;;;;;19.52;17.33;;;25.20;68.00;;;;;;5007675;28;20080;-82
2022/06/09 02:31:11;;;;;;;20.15;17.77;;;25.20;68.00;;;;;;4989886;28;20040;-82
2022/06/09 02:33:37;;;;;;;20.00;17.25;;;25.30;68.00;;;;;;5007714;28;20376;-82
2022/06/09 02:36:03;;;;;;;21.13;17.98;;;25.40;68.00;;;;;;5058159;28;20527;-82
2022/06/09 02:38:29;;;;;;;20.38;18.23;;;25.50;67.90;;;;;;5089465;28;20016;-83
2022/06/09 02:40:55;;;;;;;21.23;17.58;;;25.60;67.80;;;;;;5070081;28;20035;-81
2022/06/09 02:43:22;;;;;;;19.33;17.20;;;25.60;67.80;;;;;;5070508;28;20027;-83
2022/06/09 02:45:48;;;;;;;20.08;17.60;;;25.70;67.60;;;;;;5089727;28;20035;-83
2022/06/09 02:48:14;;;;;;;18.88;15.88;;;25.80;67.60;;;;;;5089428;28;20429;-82
2022/06/09 02:50:41;;;;;;;20.25;17.58;;;25.80;67.40;;;;;;5071244;28;20499;-82
2022/06/09 02:53:07;;;;;;;19.25;17.25;;;25.90;67.50;;;;;;5088993;28;20024;-84
2022/06/09 02:55:33;;;;;;;18.67;16.48;;;25.90;67.40;;;;;;5057783;28;20506;-84
2022/06/09 02:57:59;;;;;;;18.38;16.52;;;26.00;67.30;;;;;;5066463;28;20048;-84
2022/06/09 03:00:24;;;;;;;18.75;16.75;;;26.10;67.30;;;;;;5056942;28;20076;-81
2022/06/09 03:03:00;;;;;;;21.42;18.23;;;26.10;67.00;;;;;;5075972;28;20020;-84
2022/06/09 03:05:27;;;;;;;22.77;17.98;;;26.10;67.30;;;;;;5057920;28;20052;-84
2022/06/09 03:07:53;;;;;;;18.40;15.93;;;26.10;67.40;;;;;;5075211;28;20055;-80
2022/06/09 03:10:19;;;;;;;19.88;16.83;;;26.20;67.40;;;;;;5057918;28;20020;-82
2022/06/09 03:12:45;;;;;;;17.98;16.08;;;26.20;67.20;;;;;;5075410;28;20027;-85
2022/06/09 03:15:13;;;;;;;20.95;17.92;;;26.30;67.10;;;;;;5075187;28;20016;-84
2022/06/09 03:17:39;;;;;;;20.73;18.52;;;26.20;67.80;;;;;;5075608;28;20059;-86
2022/06/09 03:20:07;;;;;;;20.48;18.13;;;26.20;67.40;;;;;;5057390;28;20059;-88
2022/06/09 03:22:33;;;;;;;21.55;17.48;;;26.10;68.00;;;;;;5073996;28;20031;-86
2022/06/09 03:24:59;;;;;;;18.13;16.08;;;26.00;68.10;;;;;;5060262;28;20024;-83
2022/06/09 03:27:25;;;;;;;21.77;16.75;;;26.20;67.90;;;;;;5076103;28;20110;-86
2022/06/09 03:29:51;;;;;;;21.67;16.77;;;26.30;67.50;;;;;;5049071;28;20394;-87
2022/06/09 03:32:17;;;;;;;30.80;18.98;;;26.40;68.00;;;;;;5059169;28;20119;-87
2022/06/09 03:34:43;;;;;;;36.03;21.80;;;26.50;67.30;;;;;;5056957;28;20033;-86
2022/06/09 03:37:09;;;;;;;40.90;23.40;;;26.60;67.20;;;;;;5056453;28;20032;-79
2022/06/09 03:39:34;;;;;;;31.10;20.73;;;26.60;67.40;;;;;;5073639;28;20054;-84
2022/06/09 03:42:00;;;;;;;32.08;20.65;;;26.50;67.40;;;;;;5055399;28;20017;-85
2022/06/09 03:44:26;;;;;;;28.50;20.30;;;26.50;67.70;;;;;;5037836;28;20422;-86
2022/06/09 03:46:52;;;;;;;32.55;20.83;;;26.50;67.80;;;;;;5066660;28;20076;-86
2022/06/09 03:49:17;;;;;;;30.13;20.98;;;26.50;67.80;;;;;;5075733;28;20031;-86
2022/06/09 03:51:43;;;;;;;25.38;18.05;;;26.60;67.90;;;;;;5056193;28;20032;-91
2022/06/09 03:54:09;;;;;;;23.88;17.73;;;26.60;67.80;;;;;;5056208;28;20012;-81
2022/06/09 03:56:35;;;;;;;25.58;18.15;;;26.40;68.30;;;;;;5073527;28;20039;-89
2022/06/09 03:59:01;;;;;;;28.23;20.50;;;26.30;68.90;;;;;;5057515;28;20021;-84
2022/06/09 04:01:27;;;;;;;32.88;21.77;;;26.40;68.60;;;;;;5055939;28;20020;-85
2022/06/09 04:03:53;;;;;;;34.95;21.48;;;26.50;68.40;;;;;;5055969;28;20023;-87
2022/06/09 04:06:21;;;;;;;33.33;21.95;;;26.60;68.40;;;;;;5057264;28;20029;-86
2022/06/09 04:08:48;;;;;;;39.60;22.85;;;26.70;68.20;;;;;;5051661;28;20574;-81
2022/06/09 04:11:16;;;;;;;39.88;21.83;;;26.80;68.30;;;;;;5060870;28;20009;-83
2022/06/09 04:13:42;;;;;;;56.33;26.75;;;26.90;68.50;;;;;;5061202;28;20017;-81
2022/06/09 04:16:32;;;;;;;56.35;28.70;;;26.80;68.30;;;;;;5042396;28;20115;-81
2022/06/09 04:19:01;;;;;;;63.13;27.23;;;26.80;69.00;;;;;;5064920;28;20038;-77
2022/06/09 04:21:28;;;;;;;51.92;26.15;;;26.80;68.40;;;;;;5054004;28;20352;-77
2022/06/09 04:23:55;;;;;;;54.05;26.70;;;26.80;68.20;;;;;;5036954;28;20108;-78
2022/06/09 04:26:24;;;;;;;50.15;27.08;;;26.80;68.60;;;;;;5055912;28;20360;-78
2022/06/09 04:28:50;;;;;;;50.35;26.90;;;26.80;68.60;;;;;;5074186;28;20024;-79
2022/06/09 04:31:16;;;;;;;58.53;28.67;;;26.80;68.50;;;;;;5053904;28;20025;-78
2022/06/09 04:33:44;;;;;;;53.28;25.35;;;26.90;68.60;;;;;;5072594;28;20111;-79
2022/06/09 04:36:11;;;;;;;53.72;27.60;;;27.00;68.70;;;;;;5057735;28;20024;-77
2022/06/09 04:38:37;;;;;;;59.40;28.90;;;26.90;68.70;;;;;;5035390;28;20162;-78
2022/06/09 04:41:04;;;;;;;75.72;31.13;;;27.00;68.90;;;;;;5040838;28;20450;-78
2022/06/09 04:43:30;;;;;;;54.50;30.15;;;27.00;69.40;;;;;;5050836;28;20340;-78
2022/06/09 04:45:56;;;;;;;67.82;29.60;;;27.00;69.20;;;;;;5053830;28;20013;-77
2022/06/09 04:48:22;;;;;;;59.97;29.42;;;27.00;69.30;;;;;;5044764;28;20045;-79
2022/06/09 04:50:48;;;;;;;65.10;30.58;;;27.00;69.60;;;;;;5061517;28;20029;-77
2022/06/09 04:53:14;;;;;;;66.30;30.85;;;27.10;69.50;;;;;;5067323;28;20355;-79
2022/06/09 04:55:41;;;;;;;69.53;33.13;;;27.10;70.00;;;;;;5035462;28;20025;-77
2022/06/09 04:58:07;;;;;;;63.03;30.85;;;27.20;69.80;;;;;;5053442;28;20104;-78
2022/06/09 05:00:33;;;;;;;69.47;33.17;;;27.40;69.60;;;;;;5051142;28;20119;-79
2022/06/09 05:03:00;;;;;;;54.53;32.58;;;27.30;69.40;;;;;;5054948;28;20107;-78
2022/06/09 05:05:32;;;;;;;55.22;30.63;;;27.40;69.60;;;;;;5067180;28;20009;-78
2022/06/09 05:07:59;;;;;;;52.28;30.90;;;27.60;69.40;;;;;;5065939;28;20079;-79
2022/06/09 05:10:26;;;;;;;55.17;31.23;;;27.60;69.40;;;;;;5067744;28;20012;-78
2022/06/09 05:12:52;;;;;;;46.00;29.33;;;27.60;69.20;;;;;;5041905;28;20025;-76
2022/06/09 05:15:19;;;;;;;52.13;29.08;;;27.20;69.80;;;;;;5068887;28;20032;-79
2022/06/09 05:17:46;;;;;;;47.65;30.67;;;27.40;69.90;;;;;;5050933;28;20016;-78
2022/06/09 05:20:15;;;;;;;45.03;28.63;;;27.60;69.40;;;;;;5063183;28;20538;-78
2022/06/09 05:22:40;;;;;;;34.70;25.83;;;27.80;69.10;;;;;;5044658;28;20032;-77
2022/06/09 05:25:08;;;;;;;33.10;24.25;;;27.60;69.10;;;;;;5042934;28;20033;-77
2022/06/09 05:27:34;;;;;;;35.05;24.50;;;26.90;70.10;;;;;;5066684;28;20046;-86
2022/06/09 05:30:00;;;;;;;31.60;22.98;;;26.10;72.40;;;;;;5042870;28;20150;-81
2022/06/09 05:32:26;;;;;;;30.77;23.10;;;25.30;73.70;;;;;;5054120;28;20111;-76
2022/06/09 05:34:52;;;;;;;28.65;21.80;;;24.70;76.50;;;;;;5044616;28;20135;-77
2022/06/09 05:37:18;;;;;;;32.20;22.65;;;24.30;77.60;;;;;;5053163;28;20103;-79
2022/06/09 05:45:13;;;;;;;29.35;20.52;;;25.20;78.00;;;;;;5065272;28;20035;-79
2022/06/09 05:47:39;;;;;;;26.48;20.85;;;25.40;75.40;;;;;;5033391;28;20041;-75
2022/06/09 05:50:06;;;;;;;23.98;19.10;;;25.60;75.20;;;;;;5037705;28;20487;-84
2022/06/09 05:52:33;;;;;;;25.15;19.30;;;25.70;73.80;;;;;;5049357;28;20056;-84
2022/06/09 05:54:59;;;;;;;24.15;18.77;;;26.10;73.10;;;;;;5040488;28;20136;-80
2022/06/09 05:57:26;;;;;;;25.80;19.30;;;26.00;73.30;;;;;;5040389;28;20374;-75
2022/06/09 05:59:52;;;;;;;27.75;21.23;;;25.80;74.20;;;;;;5032545;28;20037;-84
2022/06/09 06:02:21;;;;;;;24.70;19.73;;;25.80;74.20;;;;;;5032629;28;20030;-80
2022/06/09 06:04:48;;;;;;;25.58;20.52;;;25.70;75.10;;;;;;5031794;28;20346;-78
2022/06/09 06:07:13;;;;;;;19.80;17.33;;;26.00;73.90;;;;;;5031342;28;20040;-79
2022/06/09 06:09:39;;;;;;;20.52;17.38;;;26.40;72.70;;;;;;5031578;28;20021;-80
2022/06/09 06:12:07;;;;;;;19.15;16.40;;;26.90;71.60;;;;;;5031906;28;20033;-80
2022/06/09 06:14:33;;;;;;;21.08;17.10;;;27.10;70.80;;;;;;5031386;28;20033;-81
2022/06/09 06:16:59;;;;;;;20.23;16.95;;;26.90;71.40;;;;;;5032564;28;20650;-78
2022/06/09 06:19:26;;;;;;;20.65;17.77;;;26.80;70.90;;;;;;5032628;28;20021;-75
2022/06/09 06:21:53;;;;;;;20.52;16.92;;;27.00;71.00;;;;;;5032107;28;20009;-77
2022/06/09 06:24:21;;;;;;;18.42;15.93;;;27.50;70.30;;;;;;5032205;28;20032;-79
2022/06/09 06:26:47;;;;;;;20.58;16.55;;;27.00;70.70;;;;;;5031463;28;20034;-78
2022/06/09 06:29:22;;;;;;;22.45;20.05;;;26.80;71.40;;;;;;5032115;28;20032;-78
2022/06/09 06:31:48;;;;;;;20.48;18.30;;;27.00;71.80;;;;;;5031294;28;20310;-79
2022/06/09 06:34:14;;;;;;;16.63;14.90;;;27.30;70.60;;;;;;5034856;28;20056;-78
2022/06/09 06:36:40;;;;;;;17.48;14.15;;;26.80;70.50;;;;;;5036301;28;20024;-82
2022/06/09 06:39:05;;;;;;;17.25;14.30;;;26.40;71.00;;;;;;5035118;28;20017;-81
2022/06/09 06:41:31;;;;;;;17.10;13.82;;;26.20;71.60;;;;;;5036401;28;20025;-80
2022/06/09 06:43:58;;;;;;;17.35;14.75;;;26.10;72.50;;;;;;5036845;28;20028;-84
2022/06/09 06:46:23;;;;;;;17.80;15.52;;;25.80;73.30;;;;;;5035146;28;20025;-81
2022/06/09 06:48:50;;;;;;;17.63;14.65;;;26.10;73.20;;;;;;5035404;28;20052;-83
2022/06/09 06:51:16;;;;;;;16.88;14.80;;;26.40;72.40;;;;;;5036799;28;20356;-80
2022/06/09 06:53:42;;;;;;;19.30;15.50;;;26.60;71.50;;;;;;5037423;28;20101;-83
2022/06/09 06:56:09;;;;;;;18.92;15.70;;;26.50;72.50;;;;;;5035722;28;20415;-82
2022/06/09 06:58:36;;;;;;;18.73;16.13;;;26.70;72.30;;;;;;5036885;28;20460;-78
2022/06/09 07:01:02;;;;;;;21.00;15.95;;;26.80;72.20;;;;;;5036154;28;20029;-79
2022/06/09 07:03:31;;;;;;;20.77;17.70;;;26.90;72.20;;;;;;5036335;28;20057;-83
2022/06/09 07:05:57;;;;;;;20.50;16.77;;;27.00;71.60;;;;;;5035964;28;20097;-78
2022/06/09 07:08:24;;;;;;;19.23;17.15;;;27.60;71.10;;;;;;5035145;28;20037;-83
2022/06/09 07:10:52;;;;;;;18.98;15.50;;;28.10;69.20;;;;;;5036059;28;20041;-79
2022/06/09 07:13:19;;;;;;;18.08;16.17;;;28.30;68.30;;;;;;5035886;28;20029;-84
2022/06/09 07:15:44;;;;;;;19.13;16.17;;;27.90;69.30;;;;;;5035144;28;20021;-91
2022/06/09 07:18:11;;;;;;;17.67;15.80;;;27.70;69.30;;;;;;5035057;28;20025;-80
2022/06/09 07:20:39;;;;;;;18.98;16.42;;;27.20;71.10;;;;;;5034859;28;20021;-79
2022/06/09 07:23:05;;;;;;;18.67;15.82;;;26.90;71.70;;;;;;5034966;28;20021;-82
2022/06/09 07:25:31;;;;;;;18.33;16.20;;;27.30;71.30;;;;;;5034685;28;20342;-80
2022/06/09 07:27:56;;;;;;;18.60;15.25;;;27.60;71.30;;;;;;5035411;28;20041;-85
2022/06/09 07:30:24;;;;;;;17.00;14.13;;;27.70;70.90;;;;;;5034874;28;20017;-81
2022/06/09 07:32:51;;;;;;;16.02;13.77;;;27.40;71.00;;;;;;5034311;28;20108;-84
2022/06/09 07:35:20;;;;;;;16.92;15.18;;;27.40;71.20;;;;;;5035831;28;20021;-81
2022/06/09 07:37:46;;;;;;;17.25;15.45;;;27.60;71.80;;;;;;5034589;28;20029;-83
2022/06/09 07:40:13;;;;;;;14.88;13.15;;;28.10;71.20;;;;;;5035428;28;20023;-84
2022/06/09 07:42:40;;;;;;;16.42;13.05;;;28.20;69.90;;;;;;5034310;28;20375;-80
2022/06/09 07:45:08;;;;;;;16.73;12.77;;;27.70;70.00;;;;;;5033945;28;20024;-79
2022/06/09 07:47:35;;;;;;;14.50;13.02;;;27.50;69.70;;;;;;5041023;28;20040;-83
2022/06/09 07:50:01;;;;;;;16.20;14.50;;;27.30;70.20;;;;;;5054895;28;20118;-80
2022/06/09 07:52:27;;;;;;;14.38;12.63;;;27.50;70.90;;;;;;5037672;28;20028;-83
2022/06/09 07:54:52;;;;;;;15.93;13.20;;;28.10;68.60;;;;;;5037760;28;20017;-85
2022/06/09 07:57:18;;;;;;;14.07;12.57;;;28.40;68.10;;;;;;5038114;28;20047;-81
2022/06/09 07:59:44;;;;;;;14.55;12.77;;;28.50;67.80;;;;;;5037468;28;20426;-79
2022/06/09 08:02:12;;;;;;;15.68;12.98;;;28.40;66.10;;;;;;5037147;28;20051;-81
2022/06/09 08:04:37;;;;;;;16.30;13.65;;;27.90;67.50;;;;;;5037089;28;20021;-87
2022/06/09 08:07:03;;;;;;;14.40;12.48;;;27.50;68.20;;;;;;5036743;28;20036;-83
2022/06/09 08:09:30;;;;;;;16.00;13.10;;;27.00;69.90;;;;;;5037760;28;20024;-81
2022/06/09 08:11:56;;;;;;;16.55;14.05;;;27.30;69.20;;;;;;5037494;28;20040;-83
2022/06/09 08:14:21;;;;;;;15.57;13.65;;;27.60;69.00;;;;;;5055434;28;20021;-84
2022/06/09 08:16:47;;;;;;;14.00;12.52;;;28.20;67.90;;;;;;5039477;28;20017;-86
2022/06/09 08:19:14;;;;;;;15.25;12.93;;;28.70;67.00;;;;;;5054998;28;20036;-83
2022/06/09 08:21:40;;;;;;;12.98;11.52;;;28.80;66.50;;;;;;5038417;28;20023;-82
2022/06/09 08:24:07;;;;;;;11.88;10.57;;;28.80;65.80;;;;;;5060055;28;20032;-81
2022/06/09 08:26:32;;;;;;;12.68;11.38;;;29.10;66.40;;;;;;5056080;28;20078;-84
2022/06/09 08:28:58;;;;;;;11.73;10.48;;;29.50;66.00;;;;;;5038160;28;20029;-82
2022/06/09 08:31:24;;;;;;;13.93;10.90;;;29.20;64.30;;;;;;5054877;28;20021;-86
2022/06/09 08:33:50;;;;;;;12.20;10.18;;;28.30;67.20;;;;;;5036847;28;20146;-83
2022/06/09 08:36:15;;;;;;;11.15;10.05;;;28.30;67.40;;;;;;5037181;28;20032;-81
2022/06/09 08:38:42;;;;;;;11.80;9.88;;;27.80;67.20;;;;;;5037813;28;20043;-84
2022/06/09 08:41:29;;;;;;;10.02;8.98;;;27.40;67.30;;;;;;5055012;28;20020;-83
2022/06/09 08:44:04;;;;;;;10.85;9.32;;;27.70;69.00;;;;;;5036738;28;20063;-85
2022/06/09 08:47:30;;;;;;;10.63;8.32;;;28.10;68.10;;;;;;5037170;28;20452;-87
2022/06/09 08:50:17;;;;;;;10.65;9.38;;;28.60;66.60;;;;;;4973862;28;20042;-82
2022/06/09 08:52:45;;;;;;;11.10;10.00;;;28.10;65.90;;;;;;4973964;28;20118;-92
2022/06/09 08:55:28;;;;;;;11.35;10.15;;;28.00;67.10;;;;;;4958859;28;20026;-86
2022/06/09 08:58:05;;;;;;;10.55;9.18;;;28.30;66.70;;;;;;4973946;28;20417;-88
2022/06/09 09:00:38;;;;;;;13.18;8.95;;;28.50;66.80;;;;;;4957978;28;20027;-87
2022/06/09 09:03:19;;;;;;;10.48;8.73;;;28.60;65.50;;;;;;4957722;28;20023;-91
2022/06/09 09:05:51;;;;;;;9.90;8.65;;;28.30;66.50;;;;;;4973913;28;20424;-81
2022/06/09 09:08:16;;;;;;;9.13;8.10;;;28.40;66.90;;;;;;4957699;28;20039;-90
2022/06/09 09:10:59;;;;;;;9.63;8.25;;;28.20;67.20;;;;;;4973561;28;20027;-89
2022/06/09 09:13:44;;;;;;;8.85;7.85;;;28.00;65.90;;;;;;4973328;28;20062;-88
2022/06/09 09:16:12;;;;;;;8.63;7.72;;;28.00;67.00;;;;;;4957185;28;20019;-85
2022/06/09 09:18:52;;;;;;;8.63;7.43;;;28.00;65.80;;;;;;4973505;28;20127;-81
2022/06/09 09:21:23;;;;;;;9.07;7.40;;;28.10;66.10;;;;;;5017607;28;20117;-85
2022/06/09 09:24:24;;;;;;;9.65;8.13;;;28.80;64.20;;;;;;5036036;28;20025;-86
2022/06/09 09:27:25;;;;;;;7.90;7.10;;;27.90;66.50;;;;;;4972885;28;20045;-90
2022/06/09 09:30:12;;;;;;;9.40;8.43;;;28.10;66.10;;;;;;4973180;28;20034;-90
2022/06/09 09:32:48;;;;;;;9.40;8.18;;;28.80;67.10;;;;;;4974171;28;20147;-89
2022/06/09 09:35:40;;;;;;;8.77;7.18;;;29.20;64.10;;;;;;4973386;28;20030;-87
2022/06/09 09:38:07;;;;;;;9.57;5.55;;;29.70;65.10;;;;;;4973633;28;20050;-88
2022/06/09 09:40:39;;;;;;;6.60;4.88;;;29.90;62.10;;;;;;4956936;28;20051;-83
2022/06/09 09:43:14;;;;;;;7.75;5.53;;;30.00;62.10;;;;;;4957399;28;20065;-91
2022/06/09 09:45:44;;;;;;;8.13;5.28;;;29.60;63.30;;;;;;4957220;28;20066;-90
2022/06/09 09:48:30;;;;;;;6.05;5.45;;;29.60;61.30;;;;;;4956955;28;20047;-88
2022/06/09 09:51:12;;;;;;;6.13;4.47;;;29.90;62.20;;;;;;4957264;28;20023;-85
2022/06/09 09:53:46;;;;;;;7.88;4.95;;;29.80;61.60;;;;;;4957120;28;20037;-91
2022/06/09 09:56:17;;;;;;;8.00;5.20;;;29.20;62.00;;;;;;4973287;28;20027;-80
2022/06/09 09:58:49;;;;;;;7.88;4.80;;;29.40;62.70;;;;;;4973483;28;20034;-90
2022/06/09 10:01:15;;;;;;;7.63;4.90;;;29.70;61.60;;;;;;4976026;28;20019;-87
2022/06/09 10:09:44;;;;;;;6.53;4.38;;;29.70;60.30;;;;;;5057023;28;20118;-83
2022/06/09 10:12:18;;;;;;;7.00;4.78;;;29.30;60.90;;;;;;5039708;28;20049;-84
2022/06/09 10:14:54;;;;;;;5.80;4.30;;;29.20;61.40;;;;;;5040254;28;20024;-83
2022/06/09 10:17:35;;;;;;;7.50;4.57;;;29.10;63.30;;;;;;5057725;28;20017;-86
2022/06/09 10:20:19;;;;;;;7.72;4.90;;;29.50;62.80;;;;;;5040880;28;20112;-94
2022/06/09 10:23:01;;;;;;;7.85;3.88;;;29.60;63.00;;;;;;5039576;28;20455;-80
2022/06/09 10:25:38;;;;;;;6.63;4.10;;;29.20;60.80;;;;;;5039050;28;20028;-86
2022/06/09 10:28:43;;;;;;;5.63;4.32;;;29.00;62.30;;;;;;5039462;28;20063;-80
2022/06/09 10:31:28;;;;;;;5.63;3.88;;;29.30;62.40;;;;;;4976353;28;20486;-82
2022/06/09 10:34:11;;;;;;;5.93;4.22;;;29.40;61.50;;;;;;4884683;29;20028;-81
2022/06/09 10:37:01;;;;;;;5.10;4.20;;;29.30;61.90;;;;;;4884151;29;20032;-79
2022/06/09 10:39:39;;;;;;;6.33;4.43;;;29.00;61.70;;;;;;4899995;29;20035;-89
2022/06/09 10:42:25;;;;;;;4.97;4.10;;;29.00;63.30;;;;;;4884796;29;20392;-79
2022/06/09 10:45:15;;;;;;;5.35;4.53;;;29.60;62.00;;;;;;4900534;29;20068;-89
2022/06/09 10:57:10;;;;;;;6.75;4.88;;;31.80;58.40;;;;;;4900494;29;20132;-81
2022/06/09 10:59:52;;;;;;;5.80;4.65;;;31.90;58.70;;;;;;4883478;29;20028;-88
2022/06/09 11:02:21;;;;;;;7.25;4.60;;;32.40;58.00;;;;;;4884168;29;20029;-83
2022/06/09 11:04:49;;;;;;;5.85;4.40;;;32.10;56.60;;;;;;4884200;29;20375;-88
2022/06/09 11:07:39;;;;;;;6.45;5.07;;;32.00;58.40;;;;;;4918168;28;20050;-85
2022/06/09 11:10:29;;;;;;;7.27;4.70;;;32.00;57.10;;;;;;4983471;28;20121;-83
2022/06/09 11:13:36;;;;;;;5.97;4.70;;;31.40;56.60;;;;;;5036574;28;20282;-85
2022/06/09 11:16:02;;;;;;;5.10;4.50;;;30.80;58.00;;;;;;5035025;28;20025;-85
2022/06/09 11:18:42;;;;;;;6.85;4.90;;;31.30;57.70;;;;;;5034768;28;20364;-84
2022/06/09 11:21:12;;;;;;;6.53;4.75;;;30.50;58.30;;;;;;5035642;28;20035;-85
2022/06/09 11:23:43;;;;;;;9.68;5.13;;;30.60;56.90;;;;;;5034997;28;20026;-82
2022/06/09 11:26:29;;;;;;;7.45;4.70;;;30.70;58.50;;;;;;5035218;28;20038;-89
2022/06/09 11:29:14;;;;;;;10.93;4.97;;;30.90;58.70;;;;;;5024860;28;20136;-83
2022/06/09 11:31:58;;;;;;;7.38;4.40;;;31.10;58.10;;;;;;5034902;28;20461;-88
2022/06/09 11:34:27;;;;;;;6.95;4.70;;;31.40;56.40;;;;;;5034430;28;20022;-83
2022/06/09 11:37:23;;;;;;;5.35;4.30;;;31.10;57.40;;;;;;5034586;28;20387;-82
2022/06/09 11:40:20;;;;;;;6.10;4.47;;;31.40;57.20;;;;;;5034822;28;20421;-81
2022/06/09 11:42:58;;;;;;;5.68;4.38;;;32.00;55.90;;;;;;5034779;28;20026;-83
2022/06/09 11:45:32;;;;;;;4.60;3.90;;;32.30;56.10;;;;;;5034605;28;20018;-84
2022/06/09 11:48:03;;;;;;;5.13;3.80;;;32.60;54.50;;;;;;5034168;28;20403;-79
2022/06/09 11:50:52;;;;;;;5.28;3.60;;;32.70;53.50;;;;;;5035450;28;20029;-81
2022/06/09 11:53:27;;;;;;;5.28;3.65;;;32.90;55.90;;;;;;5034448;28;20508;-87
2022/06/09 11:57:03;;;;;;;5.13;3.45;;;32.60;55.00;;;;;;5034400;28;20053;-81
2022/06/09 11:59:19;;;;;;;5.80;3.60;;;31.80;57.50;;;;;;5030552;28;20045;-80
2022/06/09 12:02:22;;;;;;;5.80;4.40;;;31.20;56.70;;;;;;5034475;28;20074;-83
2022/06/09 12:05:19;;;;;;;8.38;5.28;;;31.40;57.50;;;;;;5034279;28;20023;-85
2022/06/09 12:08:24;;;;;;;6.78;5.05;;;31.40;60.50;;;;;;5035025;28;20029;-78
2022/06/09 12:11:05;;;;;;;9.93;5.82;;;31.00;61.00;;;;;;5034414;28;20021;-85
2022/06/09 12:13:46;;;;;;;8.40;5.70;;;31.00;62.10;;;;;;5033711;28;20025;-83
2022/06/09 12:16:26;;;;;;;10.68;6.53;;;31.00;62.70;;;;;;5033862;28;20021;-84
2022/06/09 12:19:13;;;;;;;7.07;6.28;;;31.20;62.50;;;;;;5033660;28;20403;-81
2022/06/09 12:21:45;;;;;;;6.78;6.07;;;31.20;62.40;;;;;;5034405;28;20029;-84
2022/06/09 12:24:13;;;;;;;9.95;7.00;;;31.00;62.30;;;;;;5032948;28;20022;-79
2022/06/09 12:26:44;;;;;;;10.02;7.68;;;30.80;62.20;;;;;;5034683;28;20021;-80
2022/06/09 12:29:41;;;;;;;9.30;7.65;;;30.40;62.80;;;;;;5034558;28;20025;-80
2022/06/09 12:32:09;;;;;;;11.30;7.88;;;30.10;63.60;;;;;;5021422;28;20361;-81
2022/06/09 12:34:43;;;;;;;9.50;8.30;;;29.80;63.70;;;;;;5033820;28;20017;-82
2022/06/09 12:37:50;;;;;;;9.43;8.43;;;29.50;64.10;;;;;;5033258;28;20021;-82
2022/06/09 12:40:22;;;;;;;10.95;8.90;;;28.90;65.70;;;;;;5033075;28;20021;-83
2022/06/09 12:42:54;;;;;;;10.88;9.80;;;28.90;66.20;;;;;;5033432;28;20429;-81
2022/06/09 12:45:24;;;;;;;11.60;9.65;;;28.80;67.10;;;;;;5033143;28;20026;-84
2022/06/09 12:48:12;;;;;;;11.23;10.13;;;28.80;67.00;;;;;;5032731;28;20124;-83
2022/06/09 12:50:46;;;;;;;13.52;9.55;;;29.10;66.90;;;;;;5033943;28;20060;-81
2022/06/09 12:53:31;;;;;;;12.95;10.73;;;29.10;66.80;;;;;;5032606;28;20028;-79
2022/06/09 12:56:02;;;;;;;11.45;10.40;;;29.40;66.60;;;;;;5032196;28;20108;-79
2022/06/09 12:58:57;;;;;;;11.68;10.30;;;29.70;66.00;;;;;;5033684;28;20052;-79
2022/06/09 13:01:28;;;;;;;11.45;9.93;;;29.70;65.20;;;;;;5021018;28;20040;-80
2022/06/09 13:03:54;;;;;;;11.32;10.18;;;29.80;65.20;;;;;;5033581;28;20516;-79
2022/06/09 13:06:28;;;;;;;11.85;10.68;;;29.60;66.40;;;;;;5032032;28;20028;-80
2022/06/09 13:08:58;;;;;;;11.30;7.03;;;28.90;68.50;;;;;;5033873;28;20041;-81
2022/06/09 13:14:22;;;;;;;5.25;3.55;;;28.60;64.00;;;;;;5034266;28;20087;-76
2022/06/09 13:16:50;;;;;;;5.95;3.20;;;27.80;64.90;;;;;;5033558;28;20037;-82
2022/06/09 13:19:19;;;;;;;4.00;2.63;;;27.00;66.20;;;;;;5034089;28;20075;-84
2022/06/09 13:21:47;;;;;;;9.02;3.35;;;26.70;65.00;;;;;;5032769;28;20022;-82